sensor_id;sensor_type;location;lat;lon;timestamp;P1;durP1;ratioP1;P2;durP2;ratioP2
48823;SDS011;34640;53.590;10.054;2024-01-07T00:01:32;3.67;;;1.40;;
48823;SDS011;34640;53.590;10.054;2024-01-07T00:04:05;2.80;;;1.50;;
48823;SDS011;34640;53.590;10.054;2024-01-07T00:06:39;5.87;;;1.70;;
48823;SDS011;34640;53.590;10.054;2024-01-07T00:09:12;2.60;;;1.50;;
48823;SDS011;34640;53.590;10.054;2024-01-07T00:11:45;4.47;;;1.73;;
48823;SDS011;34640;53.590;10.054;2024-01-07T00:14:18;4.07;;;1.77;;
48823;SDS011;34640;53.590;10.054;2024-01-07T00:16:52;4.07;;;1.80;;
48823;SDS011;34640;53.590;10.054;2024-01-07T00:19:25;7.00;;;1.97;;
48823;SDS011;34640;53.590;10.054;2024-01-07T00:21:58;5.17;;;2.07;;
48823;SDS011;34640;53.590;10.054;2024-01-07T00:24:31;4.83;;;2.27;;
48823;SDS011;34640;53.590;10.054;2024-01-07T00:27:05;3.70;;;1.73;;
48823;SDS011;34640;53.590;10.054;2024-01-07T00:29:40;8.03;;;1.80;;
48823;SDS011;34640;53.590;10.054;2024-01-07T00:32:14;5.70;;;1.90;;
48823;SDS011;34640;53.590;10.054;2024-01-07T00:34:47;6.10;;;2.10;;
48823;SDS011;34640;53.590;10.054;2024-01-07T00:37:25;9.95;;;2.45;;
48823;SDS011;34640;53.590;10.054;2024-01-07T00:39:58;4.70;;;1.50;;
48823;SDS011;34640;53.590;10.054;2024-01-07T00:42:32;5.90;;;1.80;;
48823;SDS011;34640;53.590;10.054;2024-01-07T00:45:05;3.67;;;1.50;;
48823;SDS011;34640;53.590;10.054;2024-01-07T00:47:41;4.33;;;1.80;;
48823;SDS011;34640;53.590;10.054;2024-01-07T00:50:15;3.73;;;1.67;;
48823;SDS011;34640;53.590;10.054;2024-01-07T00:52:49;3.10;;;1.47;;
48823;SDS011;34640;53.590;10.054;2024-01-07T00:55:23;4.43;;;1.63;;
48823;SDS011;34640;53.590;10.054;2024-01-07T00:57:56;3.97;;;1.60;;
48823;SDS011;34640;53.590;10.054;2024-01-07T01:00:30;4.43;;;2.03;;
48823;SDS011;34640;53.590;10.054;2024-01-07T01:03:07;5.90;;;1.90;;
48823;SDS011;34640;53.590;10.054;2024-01-07T01:05:40;3.13;;;1.33;;
48823;SDS011;34640;53.590;10.054;2024-01-07T01:08:13;6.20;;;1.33;;
48823;SDS011;34640;53.590;10.054;2024-01-07T01:10:46;4.27;;;1.70;;
48823;SDS011;34640;53.590;10.054;2024-01-07T01:13:19;4.77;;;1.83;;
48823;SDS011;34640;53.590;10.054;2024-01-07T01:15:52;7.93;;;1.50;;
48823;SDS011;34640;53.590;10.054;2024-01-07T01:18:28;3.77;;;1.53;;
48823;SDS011;34640;53.590;10.054;2024-01-07T01:21:02;2.87;;;1.50;;
48823;SDS011;34640;53.590;10.054;2024-01-07T01:23:35;11.47;;;1.93;;
48823;SDS011;34640;53.590;10.054;2024-01-07T01:26:07;4.57;;;1.37;;
48823;SDS011;34640;53.590;10.054;2024-01-07T01:28:40;7.30;;;1.77;;
48823;SDS011;34640;53.590;10.054;2024-01-07T01:31:13;3.00;;;1.40;;
48823;SDS011;34640;53.590;10.054;2024-01-07T01:33:48;7.43;;;1.67;;
48823;SDS011;34640;53.590;10.054;2024-01-07T01:36:21;3.63;;;1.60;;
48823;SDS011;34640;53.590;10.054;2024-01-07T01:38:55;6.67;;;1.77;;
48823;SDS011;34640;53.590;10.054;2024-01-07T01:41:28;4.77;;;1.20;;
48823;SDS011;34640;53.590;10.054;2024-01-07T01:44:02;4.30;;;1.80;;
48823;SDS011;34640;53.590;10.054;2024-01-07T01:46:36;4.37;;;1.57;;
48823;SDS011;34640;53.590;10.054;2024-01-07T01:49:11;3.43;;;1.50;;
48823;SDS011;34640;53.590;10.054;2024-01-07T01:51:44;4.20;;;1.23;;
48823;SDS011;34640;53.590;10.054;2024-01-07T01:54:18;5.20;;;1.57;;
48823;SDS011;34640;53.590;10.054;2024-01-07T01:56:52;5.17;;;1.53;;
48823;SDS011;34640;53.590;10.054;2024-01-07T01:59:25;5.27;;;1.70;;
48823;SDS011;34640;53.590;10.054;2024-01-07T02:02:01;5.60;;;1.67;;
48823;SDS011;34640;53.590;10.054;2024-01-07T02:04:35;3.57;;;1.23;;
48823;SDS011;34640;53.590;10.054;2024-01-07T02:07:08;5.20;;;1.60;;
48823;SDS011;34640;53.590;10.054;2024-01-07T02:09:42;5.40;;;1.43;;
48823;SDS011;34640;53.590;10.054;2024-01-07T02:12:15;5.60;;;1.53;;
48823;SDS011;34640;53.590;10.054;2024-01-07T02:14:48;4.90;;;1.47;;
48823;SDS011;34640;53.590;10.054;2024-01-07T02:17:22;4.63;;;1.50;;
48823;SDS011;34640;53.590;10.054;2024-01-07T02:19:56;4.80;;;1.47;;
48823;SDS011;34640;53.590;10.054;2024-01-07T02:22:29;2.60;;;1.40;;
48823;SDS011;34640;53.590;10.054;2024-01-07T02:25:05;4.27;;;1.60;;
48823;SDS011;34640;53.590;10.054;2024-01-07T02:27:43;2.87;;;1.27;;
48823;SDS011;34640;53.590;10.054;2024-01-07T02:30:16;5.45;;;1.58;;
48823;SDS011;34640;53.590;10.054;2024-01-07T02:32:50;4.95;;;1.42;;
48823;SDS011;34640;53.590;10.054;2024-01-07T02:35:24;3.75;;;1.52;;
48823;SDS011;34640;53.590;10.054;2024-01-07T02:37:58;3.10;;;1.60;;
48823;SDS011;34640;53.590;10.054;2024-01-07T02:40:37;5.57;;;1.50;;
48823;SDS011;34640;53.590;10.054;2024-01-07T02:43:17;7.47;;;1.50;;
48823;SDS011;34640;53.590;10.054;2024-01-07T02:45:51;4.23;;;1.37;;
48823;SDS011;34640;53.590;10.054;2024-01-07T02:48:28;3.50;;;1.20;;
48823;SDS011;34640;53.590;10.054;2024-01-07T02:51:14;3.45;;;1.58;;
48823;SDS011;34640;53.590;10.054;2024-01-07T02:53:49;6.10;;;1.20;;
48823;SDS011;34640;53.590;10.054;2024-01-07T02:56:24;5.13;;;1.33;;
48823;SDS011;34640;53.590;10.054;2024-01-07T02:58:57;1.93;;;1.00;;
48823;SDS011;34640;53.590;10.054;2024-01-07T03:01:29;4.37;;;1.73;;
48823;SDS011;34640;53.590;10.054;2024-01-07T03:04:02;6.47;;;1.25;;
48823;SDS011;34640;53.590;10.054;2024-01-07T03:06:36;4.70;;;1.35;;
48823;SDS011;34640;53.590;10.054;2024-01-07T03:09:09;4.43;;;1.13;;
48823;SDS011;34640;53.590;10.054;2024-01-07T03:11:45;10.70;;;1.67;;
48823;SDS011;34640;53.590;10.054;2024-01-07T03:14:18;4.10;;;1.43;;
48823;SDS011;34640;53.590;10.054;2024-01-07T03:16:53;4.97;;;1.40;;
48823;SDS011;34640;53.590;10.054;2024-01-07T03:19:26;7.30;;;1.50;;
48823;SDS011;34640;53.590;10.054;2024-01-07T03:22:00;5.13;;;1.10;;
48823;SDS011;34640;53.590;10.054;2024-01-07T03:24:33;2.87;;;1.57;;
48823;SDS011;34640;53.590;10.054;2024-01-07T03:27:10;4.20;;;1.50;;
48823;SDS011;34640;53.590;10.054;2024-01-07T03:29:44;2.87;;;1.20;;
48823;SDS011;34640;53.590;10.054;2024-01-07T03:32:17;4.07;;;1.47;;
48823;SDS011;34640;53.590;10.054;2024-01-07T03:34:51;3.00;;;1.30;;
48823;SDS011;34640;53.590;10.054;2024-01-07T03:37:24;11.73;;;4.50;;
48823;SDS011;34640;53.590;10.054;2024-01-07T03:39:57;2.53;;;1.33;;
48823;SDS011;34640;53.590;10.054;2024-01-07T03:42:32;5.63;;;1.10;;
48823;SDS011;34640;53.590;10.054;2024-01-07T03:45:05;7.07;;;1.37;;
48823;SDS011;34640;53.590;10.054;2024-01-07T03:47:38;3.77;;;1.27;;
48823;SDS011;34640;53.590;10.054;2024-01-07T03:50:12;3.70;;;1.50;;
48823;SDS011;34640;53.590;10.054;2024-01-07T03:52:45;2.90;;;1.30;;
48823;SDS011;34640;53.590;10.054;2024-01-07T03:55:19;4.40;;;1.60;;
48823;SDS011;34640;53.590;10.054;2024-01-07T03:57:55;4.20;;;1.13;;
48823;SDS011;34640;53.590;10.054;2024-01-07T04:00:28;3.30;;;1.07;;
48823;SDS011;34640;53.590;10.054;2024-01-07T04:03:02;4.63;;;1.13;;
48823;SDS011;34640;53.590;10.054;2024-01-07T04:05:35;4.27;;;1.10;;
48823;SDS011;34640;53.590;10.054;2024-01-07T04:08:09;4.43;;;1.30;;
48823;SDS011;34640;53.590;10.054;2024-01-07T04:10:42;3.83;;;1.20;;
48823;SDS011;34640;53.590;10.054;2024-01-07T04:13:17;3.40;;;1.30;;
48823;SDS011;34640;53.590;10.054;2024-01-07T04:15:50;2.57;;;0.97;;
48823;SDS011;34640;53.590;10.054;2024-01-07T04:18:23;2.13;;;0.90;;
48823;SDS011;34640;53.590;10.054;2024-01-07T04:20:56;1.73;;;0.90;;
48823;SDS011;34640;53.590;10.054;2024-01-07T04:23:28;3.33;;;1.20;;
48823;SDS011;34640;53.590;10.054;2024-01-07T04:26:01;2.73;;;1.03;;
48823;SDS011;34640;53.590;10.054;2024-01-07T04:28:37;3.03;;;1.10;;
48823;SDS011;34640;53.590;10.054;2024-01-07T04:31:13;3.40;;;0.90;;
48823;SDS011;34640;53.590;10.054;2024-01-07T04:33:46;3.83;;;1.10;;
48823;SDS011;34640;53.590;10.054;2024-01-07T04:36:19;2.23;;;1.00;;
48823;SDS011;34640;53.590;10.054;2024-01-07T04:38:52;5.20;;;1.30;;
48823;SDS011;34640;53.590;10.054;2024-01-07T04:41:25;3.20;;;0.93;;
48823;SDS011;34640;53.590;10.054;2024-01-07T04:44:00;1.73;;;0.80;;
48823;SDS011;34640;53.590;10.054;2024-01-07T04:46:33;2.13;;;0.97;;
48823;SDS011;34640;53.590;10.054;2024-01-07T04:49:06;2.50;;;1.00;;
48823;SDS011;34640;53.590;10.054;2024-01-07T04:51:39;2.33;;;0.93;;
48823;SDS011;34640;53.590;10.054;2024-01-07T04:54:12;3.83;;;0.90;;
48823;SDS011;34640;53.590;10.054;2024-01-07T04:56:45;1.63;;;0.90;;
48823;SDS011;34640;53.590;10.054;2024-01-07T04:59:22;5.90;;;0.90;;
48823;SDS011;34640;53.590;10.054;2024-01-07T05:01:56;2.93;;;0.80;;
48823;SDS011;34640;53.590;10.054;2024-01-07T05:04:29;5.80;;;0.90;;
48823;SDS011;34640;53.590;10.054;2024-01-07T05:07:02;2.90;;;0.80;;
48823;SDS011;34640;53.590;10.054;2024-01-07T05:09:37;1.80;;;0.80;;
48823;SDS011;34640;53.590;10.054;2024-01-07T05:12:10;0.90;;;0.50;;
48823;SDS011;34640;53.590;10.054;2024-01-07T05:14:46;3.47;;;0.87;;
48823;SDS011;34640;53.590;10.054;2024-01-07T05:17:19;4.60;;;1.03;;
48823;SDS011;34640;53.590;10.054;2024-01-07T05:19:52;3.30;;;0.77;;
48823;SDS011;34640;53.590;10.054;2024-01-07T05:22:25;2.87;;;1.00;;
48823;SDS011;34640;53.590;10.054;2024-01-07T05:25:00;4.67;;;0.90;;
48823;SDS011;34640;53.590;10.054;2024-01-07T05:27:33;4.00;;;0.93;;
48823;SDS011;34640;53.590;10.054;2024-01-07T05:30:08;3.67;;;1.10;;
48823;SDS011;34640;53.590;10.054;2024-01-07T05:32:43;1.90;;;0.73;;
48823;SDS011;34640;53.590;10.054;2024-01-07T05:35:16;1.47;;;0.63;;
48823;SDS011;34640;53.590;10.054;2024-01-07T05:37:49;2.00;;;0.75;;
48823;SDS011;34640;53.590;10.054;2024-01-07T05:40:22;2.67;;;0.90;;
48823;SDS011;34640;53.590;10.054;2024-01-07T05:42:55;3.07;;;0.70;;
48823;SDS011;34640;53.590;10.054;2024-01-07T05:45:29;2.40;;;0.90;;
48823;SDS011;34640;53.590;10.054;2024-01-07T05:48:02;2.53;;;0.70;;
48823;SDS011;34640;53.590;10.054;2024-01-07T05:50:36;4.13;;;1.00;;
48823;SDS011;34640;53.590;10.054;2024-01-07T05:53:09;2.07;;;0.70;;
48823;SDS011;34640;53.590;10.054;2024-01-07T05:55:43;2.43;;;1.10;;
48823;SDS011;34640;53.590;10.054;2024-01-07T05:58:16;2.97;;;0.75;;
48823;SDS011;34640;53.590;10.054;2024-01-07T06:00:51;3.38;;;1.00;;
48823;SDS011;34640;53.590;10.054;2024-01-07T06:03:26;1.95;;;0.93;;
48823;SDS011;34640;53.590;10.054;2024-01-07T06:05:59;5.57;;;1.00;;
48823;SDS011;34640;53.590;10.054;2024-01-07T06:08:32;4.40;;;0.80;;
48823;SDS011;34640;53.590;10.054;2024-01-07T06:11:06;5.10;;;1.20;;
48823;SDS011;34640;53.590;10.054;2024-01-07T06:13:40;1.92;;;0.80;;
48823;SDS011;34640;53.590;10.054;2024-01-07T06:16:14;4.05;;;1.13;;
48823;SDS011;34640;53.590;10.054;2024-01-07T06:18:48;2.63;;;1.00;;
48823;SDS011;34640;53.590;10.054;2024-01-07T06:21:21;3.77;;;1.00;;
48823;SDS011;34640;53.590;10.054;2024-01-07T06:23:54;2.23;;;0.90;;
48823;SDS011;34640;53.590;10.054;2024-01-07T06:26:26;1.67;;;0.97;;
48823;SDS011;34640;53.590;10.054;2024-01-07T06:29:00;3.50;;;1.27;;
48823;SDS011;34640;53.590;10.054;2024-01-07T06:31:35;5.53;;;1.00;;
48823;SDS011;34640;53.590;10.054;2024-01-07T06:34:08;3.45;;;1.15;;
48823;SDS011;34640;53.590;10.054;2024-01-07T06:36:45;2.20;;;1.23;;
48823;SDS011;34640;53.590;10.054;2024-01-07T06:39:18;2.83;;;1.02;;
48823;SDS011;34640;53.590;10.054;2024-01-07T06:41:51;5.57;;;1.10;;
48823;SDS011;34640;53.590;10.054;2024-01-07T06:44:24;5.63;;;1.37;;
48823;SDS011;34640;53.590;10.054;2024-01-07T06:46:58;9.07;;;1.55;;
48823;SDS011;34640;53.590;10.054;2024-01-07T06:49:31;4.27;;;0.90;;
48823;SDS011;34640;53.590;10.054;2024-01-07T06:52:05;5.27;;;1.20;;
48823;SDS011;34640;53.590;10.054;2024-01-07T06:54:38;1.67;;;1.10;;
48823;SDS011;34640;53.590;10.054;2024-01-07T06:57:11;4.43;;;1.10;;
48823;SDS011;34640;53.590;10.054;2024-01-07T06:59:44;3.73;;;1.30;;
48823;SDS011;34640;53.590;10.054;2024-01-07T07:02:19;7.13;;;1.60;;
48823;SDS011;34640;53.590;10.054;2024-01-07T07:04:52;8.63;;;1.40;;
48823;SDS011;34640;53.590;10.054;2024-01-07T07:07:25;7.40;;;1.70;;
48823;SDS011;34640;53.590;10.054;2024-01-07T07:09:58;5.43;;;1.93;;
48823;SDS011;34640;53.590;10.054;2024-01-07T07:12:32;4.80;;;1.93;;
48823;SDS011;34640;53.590;10.054;2024-01-07T07:15:05;8.00;;;1.77;;
48823;SDS011;34640;53.590;10.054;2024-01-07T07:17:40;4.63;;;1.60;;
48823;SDS011;34640;53.590;10.054;2024-01-07T07:20:13;10.13;;;2.60;;
48823;SDS011;34640;53.590;10.054;2024-01-07T07:22:46;5.20;;;2.03;;
48823;SDS011;34640;53.590;10.054;2024-01-07T07:25:19;7.00;;;1.87;;
48823;SDS011;34640;53.590;10.054;2024-01-07T07:27:53;4.93;;;2.60;;
48823;SDS011;34640;53.590;10.054;2024-01-07T07:30:27;6.33;;;2.43;;
48823;SDS011;34640;53.590;10.054;2024-01-07T07:33:03;8.87;;;2.73;;
48823;SDS011;34640;53.590;10.054;2024-01-07T07:35:36;6.80;;;2.27;;
48823;SDS011;34640;53.590;10.054;2024-01-07T07:38:11;8.50;;;2.60;;
48823;SDS011;34640;53.590;10.054;2024-01-07T07:40:46;8.30;;;2.70;;
48823;SDS011;34640;53.590;10.054;2024-01-07T07:43:24;7.07;;;2.90;;
48823;SDS011;34640;53.590;10.054;2024-01-07T07:45:57;10.10;;;2.70;;
48823;SDS011;34640;53.590;10.054;2024-01-07T07:48:33;6.33;;;2.50;;
48823;SDS011;34640;53.590;10.054;2024-01-07T07:51:06;8.17;;;2.50;;
48823;SDS011;34640;53.590;10.054;2024-01-07T07:53:41;6.63;;;2.60;;
48823;SDS011;34640;53.590;10.054;2024-01-07T07:56:15;6.47;;;2.53;;
48823;SDS011;34640;53.590;10.054;2024-01-07T07:58:48;6.37;;;2.60;;
48823;SDS011;34640;53.590;10.054;2024-01-07T08:01:21;8.93;;;2.93;;
48823;SDS011;34640;53.590;10.054;2024-01-07T08:03:55;7.03;;;2.67;;
48823;SDS011;34640;53.590;10.054;2024-01-07T08:06:29;4.57;;;2.20;;
48823;SDS011;34640;53.590;10.054;2024-01-07T08:09:02;6.30;;;2.43;;
48823;SDS011;34640;53.590;10.054;2024-01-07T08:11:35;10.20;;;2.67;;
48823;SDS011;34640;53.590;10.054;2024-01-07T08:14:10;9.53;;;2.87;;
48823;SDS011;34640;53.590;10.054;2024-01-07T08:16:45;8.70;;;2.53;;
48823;SDS011;34640;53.590;10.054;2024-01-07T08:19:19;7.57;;;2.70;;
48823;SDS011;34640;53.590;10.054;2024-01-07T08:21:53;5.70;;;2.93;;
48823;SDS011;34640;53.590;10.054;2024-01-07T08:24:27;7.07;;;3.23;;
48823;SDS011;34640;53.590;10.054;2024-01-07T08:27:01;8.63;;;3.10;;
48823;SDS011;34640;53.590;10.054;2024-01-07T08:29:34;8.10;;;2.50;;
48823;SDS011;34640;53.590;10.054;2024-01-07T08:32:08;4.40;;;2.23;;
48823;SDS011;34640;53.590;10.054;2024-01-07T08:34:42;8.37;;;2.90;;
48823;SDS011;34640;53.590;10.054;2024-01-07T08:37:16;8.37;;;2.80;;
48823;SDS011;34640;53.590;10.054;2024-01-07T08:39:49;6.33;;;3.00;;
48823;SDS011;34640;53.590;10.054;2024-01-07T08:42:22;7.00;;;2.20;;
48823;SDS011;34640;53.590;10.054;2024-01-07T08:45:00;5.27;;;2.33;;
48823;SDS011;34640;53.590;10.054;2024-01-07T08:47:35;8.17;;;2.53;;
48823;SDS011;34640;53.590;10.054;2024-01-07T08:50:16;5.83;;;2.50;;
48823;SDS011;34640;53.590;10.054;2024-01-07T08:52:49;6.40;;;2.80;;
48823;SDS011;34640;53.590;10.054;2024-01-07T08:55:22;9.53;;;2.33;;
48823;SDS011;34640;53.590;10.054;2024-01-07T08:57:55;5.83;;;2.60;;
48823;SDS011;34640;53.590;10.054;2024-01-07T09:00:28;8.77;;;2.77;;
48823;SDS011;34640;53.590;10.054;2024-01-07T09:03:03;6.53;;;2.67;;
48823;SDS011;34640;53.590;10.054;2024-01-07T09:05:37;7.53;;;2.70;;
48823;SDS011;34640;53.590;10.054;2024-01-07T09:08:10;9.57;;;2.83;;
48823;SDS011;34640;53.590;10.054;2024-01-07T09:10:46;3.70;;;1.80;;
48823;SDS011;34640;53.590;10.054;2024-01-07T09:13:19;5.07;;;2.37;;
48823;SDS011;34640;53.590;10.054;2024-01-07T09:15:52;8.43;;;2.40;;
48823;SDS011;34640;53.590;10.054;2024-01-07T09:18:25;6.27;;;2.40;;
48823;SDS011;34640;53.590;10.054;2024-01-07T09:20:59;7.37;;;2.37;;
48823;SDS011;34640;53.590;10.054;2024-01-07T09:23:32;5.00;;;2.17;;
48823;SDS011;34640;53.590;10.054;2024-01-07T09:26:07;6.03;;;2.50;;
48823;SDS011;34640;53.590;10.054;2024-01-07T09:28:41;4.97;;;2.13;;
48823;SDS011;34640;53.590;10.054;2024-01-07T09:31:15;10.27;;;2.40;;
48823;SDS011;34640;53.590;10.054;2024-01-07T09:33:48;6.30;;;2.30;;
48823;SDS011;34640;53.590;10.054;2024-01-07T09:36:22;7.63;;;3.33;;
48823;SDS011;34640;53.590;10.054;2024-01-07T09:39:01;6.63;;;2.23;;
48823;SDS011;34640;53.590;10.054;2024-01-07T09:41:36;6.33;;;2.40;;
48823;SDS011;34640;53.590;10.054;2024-01-07T09:44:11;5.17;;;2.13;;
48823;SDS011;34640;53.590;10.054;2024-01-07T09:46:46;7.73;;;2.37;;
48823;SDS011;34640;53.590;10.054;2024-01-07T09:49:23;5.87;;;2.20;;
48823;SDS011;34640;53.590;10.054;2024-01-07T09:51:59;7.03;;;1.87;;
48823;SDS011;34640;53.590;10.054;2024-01-07T09:54:34;6.57;;;1.90;;
48823;SDS011;34640;53.590;10.054;2024-01-07T09:57:09;4.10;;;2.17;;
48823;SDS011;34640;53.590;10.054;2024-01-07T09:59:43;6.23;;;2.33;;
48823;SDS011;34640;53.590;10.054;2024-01-07T10:02:16;6.07;;;1.70;;
48823;SDS011;34640;53.590;10.054;2024-01-07T10:04:49;5.53;;;1.93;;
48823;SDS011;34640;53.590;10.054;2024-01-07T10:07:24;5.33;;;2.23;;
48823;SDS011;34640;53.590;10.054;2024-01-07T10:09:58;7.97;;;3.10;;
48823;SDS011;34640;53.590;10.054;2024-01-07T10:12:43;3.90;;;1.90;;
48823;SDS011;34640;53.590;10.054;2024-01-07T10:15:18;6.03;;;2.40;;
48823;SDS011;34640;53.590;10.054;2024-01-07T10:17:54;4.27;;;2.20;;
48823;SDS011;34640;53.590;10.054;2024-01-07T10:20:28;4.93;;;1.90;;
48823;SDS011;34640;53.590;10.054;2024-01-07T10:23:02;4.70;;;2.30;;
48823;SDS011;34640;53.590;10.054;2024-01-07T10:25:36;7.73;;;2.30;;
48823;SDS011;34640;53.590;10.054;2024-01-07T10:28:10;5.93;;;1.90;;
48823;SDS011;34640;53.590;10.054;2024-01-07T10:30:48;6.57;;;2.57;;
48823;SDS011;34640;53.590;10.054;2024-01-07T10:33:22;7.50;;;2.50;;
48823;SDS011;34640;53.590;10.054;2024-01-07T10:36:00;7.80;;;2.27;;
48823;SDS011;34640;53.590;10.054;2024-01-07T10:38:38;5.70;;;2.30;;
48823;SDS011;34640;53.590;10.054;2024-01-07T10:41:15;5.13;;;2.05;;
48823;SDS011;34640;53.590;10.054;2024-01-07T10:43:52;4.87;;;1.70;;
48823;SDS011;34640;53.590;10.054;2024-01-07T10:46:26;7.80;;;2.13;;
48823;SDS011;34640;53.590;10.054;2024-01-07T10:49:04;5.35;;;1.70;;
48823;SDS011;34640;53.590;10.054;2024-01-07T10:51:40;5.47;;;2.70;;
48823;SDS011;34640;53.590;10.054;2024-01-07T10:54:15;5.47;;;2.53;;
48823;SDS011;34640;53.590;10.054;2024-01-07T10:56:52;7.43;;;2.42;;
48823;SDS011;34640;53.590;10.054;2024-01-07T10:59:30;3.42;;;1.98;;
48823;SDS011;34640;53.590;10.054;2024-01-07T11:02:05;6.43;;;2.75;;
48823;SDS011;34640;53.590;10.054;2024-01-07T11:04:42;4.03;;;2.10;;
48823;SDS011;34640;53.590;10.054;2024-01-07T11:07:19;5.53;;;2.30;;
48823;SDS011;34640;53.590;10.054;2024-01-07T11:10:04;5.93;;;2.47;;
48823;SDS011;34640;53.590;10.054;2024-01-07T11:12:41;5.73;;;3.27;;
48823;SDS011;34640;53.590;10.054;2024-01-07T11:15:21;6.07;;;2.47;;
48823;SDS011;34640;53.590;10.054;2024-01-07T11:18:24;8.00;;;2.90;;
48823;SDS011;34640;53.590;10.054;2024-01-07T11:21:01;6.23;;;2.20;;
48823;SDS011;34640;53.590;10.054;2024-01-07T11:23:35;7.27;;;2.37;;
48823;SDS011;34640;53.590;10.054;2024-01-07T11:26:11;5.40;;;2.10;;
48823;SDS011;34640;53.590;10.054;2024-01-07T11:28:45;6.87;;;2.37;;
48823;SDS011;34640;53.590;10.054;2024-01-07T11:31:22;6.10;;;2.10;;
48823;SDS011;34640;53.590;10.054;2024-01-07T11:34:38;5.78;;;1.95;;
48823;SDS011;34640;53.590;10.054;2024-01-07T11:37:13;3.83;;;2.13;;
48823;SDS011;34640;53.590;10.054;2024-01-07T11:39:47;7.47;;;2.23;;
48823;SDS011;34640;53.590;10.054;2024-01-07T11:42:22;5.50;;;2.27;;
48823;SDS011;34640;53.590;10.054;2024-01-07T11:44:57;4.43;;;2.03;;
48823;SDS011;34640;53.590;10.054;2024-01-07T11:47:31;10.40;;;2.87;;
48823;SDS011;34640;53.590;10.054;2024-01-07T11:50:04;5.40;;;2.47;;
48823;SDS011;34640;53.590;10.054;2024-01-07T11:52:38;5.83;;;3.03;;
48823;SDS011;34640;53.590;10.054;2024-01-07T11:55:11;6.07;;;2.40;;
48823;SDS011;34640;53.590;10.054;2024-01-07T11:57:46;7.37;;;2.20;;
48823;SDS011;34640;53.590;10.054;2024-01-07T12:00:20;4.53;;;2.00;;
48823;SDS011;34640;53.590;10.054;2024-01-07T12:02:55;4.73;;;1.97;;
48823;SDS011;34640;53.590;10.054;2024-01-07T12:05:29;5.30;;;2.13;;
48823;SDS011;34640;53.590;10.054;2024-01-07T12:08:04;5.90;;;1.90;;
48823;SDS011;34640;53.590;10.054;2024-01-07T12:10:38;6.87;;;2.00;;
48823;SDS011;34640;53.590;10.054;2024-01-07T12:13:12;3.87;;;1.50;;
48823;SDS011;34640;53.590;10.054;2024-01-07T12:15:45;5.20;;;1.83;;
48823;SDS011;34640;53.590;10.054;2024-01-07T12:18:19;4.17;;;1.40;;
48823;SDS011;34640;53.590;10.054;2024-01-07T12:20:56;4.03;;;1.97;;
48823;SDS011;34640;53.590;10.054;2024-01-07T12:23:31;4.63;;;1.73;;
48823;SDS011;34640;53.590;10.054;2024-01-07T12:26:07;5.23;;;2.00;;
48823;SDS011;34640;53.590;10.054;2024-01-07T12:28:43;5.77;;;1.47;;
48823;SDS011;34640;53.590;10.054;2024-01-07T12:31:16;3.70;;;1.53;;
48823;SDS011;34640;53.590;10.054;2024-01-07T12:33:51;6.40;;;1.60;;
48823;SDS011;34640;53.590;10.054;2024-01-07T12:36:25;7.20;;;2.27;;
48823;SDS011;34640;53.590;10.054;2024-01-07T12:38:59;5.43;;;2.37;;
48823;SDS011;34640;53.590;10.054;2024-01-07T12:41:32;7.67;;;2.23;;
48823;SDS011;34640;53.590;10.054;2024-01-07T12:44:07;4.97;;;2.13;;
48823;SDS011;34640;53.590;10.054;2024-01-07T12:46:40;3.57;;;1.73;;
48823;SDS011;34640;53.590;10.054;2024-01-07T12:49:18;7.10;;;2.00;;
48823;SDS011;34640;53.590;10.054;2024-01-07T12:51:55;8.88;;;2.42;;
48823;SDS011;34640;53.590;10.054;2024-01-07T12:54:29;8.57;;;2.97;;
48823;SDS011;34640;53.590;10.054;2024-01-07T12:57:03;8.10;;;2.47;;
48823;SDS011;34640;53.590;10.054;2024-01-07T12:59:39;5.20;;;2.27;;
48823;SDS011;34640;53.590;10.054;2024-01-07T13:02:12;6.53;;;2.43;;
48823;SDS011;34640;53.590;10.054;2024-01-07T13:04:45;11.20;;;2.13;;
48823;SDS011;34640;53.590;10.054;2024-01-07T13:07:19;5.20;;;2.10;;
48823;SDS011;34640;53.590;10.054;2024-01-07T13:09:52;3.80;;;1.73;;
48823;SDS011;34640;53.590;10.054;2024-01-07T13:12:25;5.43;;;1.83;;
48823;SDS011;34640;53.590;10.054;2024-01-07T13:15:15;4.73;;;1.73;;
48823;SDS011;34640;53.590;10.054;2024-01-07T13:17:48;5.57;;;2.53;;
48823;SDS011;34640;53.590;10.054;2024-01-07T13:20:22;6.97;;;2.93;;
48823;SDS011;34640;53.590;10.054;2024-01-07T13:22:55;8.07;;;2.30;;
48823;SDS011;34640;53.590;10.054;2024-01-07T13:25:28;4.27;;;1.97;;
48823;SDS011;34640;53.590;10.054;2024-01-07T13:28:01;4.00;;;1.80;;
48823;SDS011;34640;53.590;10.054;2024-01-07T13:30:36;5.13;;;1.63;;
48823;SDS011;34640;53.590;10.054;2024-01-07T13:33:09;5.17;;;2.07;;
48823;SDS011;34640;53.590;10.054;2024-01-07T13:35:42;5.10;;;1.90;;
48823;SDS011;34640;53.590;10.054;2024-01-07T13:38:15;3.47;;;1.97;;
48823;SDS011;34640;53.590;10.054;2024-01-07T13:40:49;2.80;;;1.57;;
48823;SDS011;34640;53.590;10.054;2024-01-07T13:43:22;4.40;;;1.70;;
48823;SDS011;34640;53.590;10.054;2024-01-07T13:46:02;3.42;;;2.00;;
48823;SDS011;34640;53.590;10.054;2024-01-07T13:48:36;3.07;;;1.43;;
48823;SDS011;34640;53.590;10.054;2024-01-07T13:51:13;2.87;;;1.07;;
48823;SDS011;34640;53.590;10.054;2024-01-07T13:53:46;7.13;;;2.00;;
48823;SDS011;34640;53.590;10.054;2024-01-07T13:56:19;3.43;;;1.30;;
48823;SDS011;34640;53.590;10.054;2024-01-07T13:58:52;4.47;;;2.00;;
48823;SDS011;34640;53.590;10.054;2024-01-07T14:01:27;3.97;;;1.53;;
48823;SDS011;34640;53.590;10.054;2024-01-07T14:04:00;6.47;;;1.60;;
48823;SDS011;34640;53.590;10.054;2024-01-07T14:06:35;3.60;;;1.50;;
48823;SDS011;34640;53.590;10.054;2024-01-07T14:09:08;7.27;;;1.57;;
48823;SDS011;34640;53.590;10.054;2024-01-07T14:11:42;3.80;;;1.77;;
48823;SDS011;34640;53.590;10.054;2024-01-07T14:14:17;4.00;;;1.90;;
48823;SDS011;34640;53.590;10.054;2024-01-07T14:16:55;3.30;;;1.57;;
48823;SDS011;34640;53.590;10.054;2024-01-07T14:19:28;3.93;;;1.73;;
48823;SDS011;34640;53.590;10.054;2024-01-07T14:22:01;3.63;;;1.80;;
48823;SDS011;34640;53.590;10.054;2024-01-07T14:24:34;5.20;;;2.10;;
48823;SDS011;34640;53.590;10.054;2024-01-07T14:27:07;4.50;;;1.90;;
48823;SDS011;34640;53.590;10.054;2024-01-07T14:29:42;3.40;;;1.77;;
48823;SDS011;34640;53.590;10.054;2024-01-07T14:32:18;5.40;;;2.10;;
48823;SDS011;34640;53.590;10.054;2024-01-07T14:34:52;7.20;;;1.90;;
48823;SDS011;34640;53.590;10.054;2024-01-07T14:37:25;4.43;;;1.90;;
48823;SDS011;34640;53.590;10.054;2024-01-07T14:39:59;4.20;;;1.60;;
48823;SDS011;34640;53.590;10.054;2024-01-07T14:42:32;2.37;;;1.33;;
48823;SDS011;34640;53.590;10.054;2024-01-07T14:45:09;5.07;;;1.90;;
48823;SDS011;34640;53.590;10.054;2024-01-07T14:47:43;3.63;;;2.00;;
48823;SDS011;34640;53.590;10.054;2024-01-07T14:50:18;4.37;;;2.10;;
48823;SDS011;34640;53.590;10.054;2024-01-07T14:53:03;4.00;;;2.00;;
48823;SDS011;34640;53.590;10.054;2024-01-07T14:55:39;4.57;;;2.10;;
48823;SDS011;34640;53.590;10.054;2024-01-07T14:58:12;3.00;;;1.50;;
48823;SDS011;34640;53.590;10.054;2024-01-07T15:00:45;8.17;;;3.23;;
48823;SDS011;34640;53.590;10.054;2024-01-07T15:03:20;5.33;;;1.60;;
48823;SDS011;34640;53.590;10.054;2024-01-07T15:05:53;7.87;;;2.20;;
48823;SDS011;34640;53.590;10.054;2024-01-07T15:08:26;6.13;;;2.23;;
48823;SDS011;34640;53.590;10.054;2024-01-07T15:11:00;9.77;;;2.27;;
48823;SDS011;34640;53.590;10.054;2024-01-07T15:13:33;3.80;;;1.93;;
48823;SDS011;34640;53.590;10.054;2024-01-07T15:16:06;6.63;;;2.10;;